Time;durP1;ratioP1;P1;durP2;ratioP2;P2;SDS_P1;SDS_P2;PMS_P1;PMS_P2;Temp;Humidity;BMP_temperature;BMP_pressure;BME280_temperature;BME280_humidity;BME280_pressure;Samples;Min_cycle;Max_cycle;Signal;HPM_P1;HPM_P2
2022/09/21 00:00:44;;;;;;;;;;;;;;;11.60;100.00;-25392.69;4993864;28;19965;-85
2022/09/21 00:03:10;;;;;;;;;;;;;;;11.64;100.00;-25393.72;4995414;28;20396;-84
2022/09/21 00:05:35;;;;;;;;;;;;;;;11.65;100.00;-25394.00;4996759;28;20011;-81
2022/09/21 00:08:04;;;;;;;;;;;;;;;11.59;100.00;-25392.25;4997044;28;19948;-81
2022/09/21 00:10:30;;;;;;;;;;;;;;;11.58;100.00;-25391.97;4996450;28;20543;-82
2022/09/21 00:13:03;;;;;;;;;;;;;;;11.54;100.00;-25390.78;4995226;28;19929;-85
2022/09/21 00:15:29;;;;;;;;;;;;;;;11.52;100.00;-25390.19;4996672;28;19921;-85
2022/09/21 00:17:55;;;;;;;;;;;;;;;11.50;100.00;-25389.91;4996765;28;19944;-85
2022/09/21 00:20:21;;;;;;;;;;;;;;;11.52;100.00;-25390.19;5014401;28;19922;-83
2022/09/21 00:22:57;;;;;;;;;;;;;;;11.53;100.00;-25390.50;4996717;28;19952;-86
2022/09/21 00:25:23;;;;;;;;;;;;;;;11.48;100.00;-25389.16;4996085;28;20020;-83
2022/09/21 00:27:50;;;;;;;;;;;;;;;11.47;100.00;-25389.03;4998870;28;19957;-84
2022/09/21 00:30:15;;;;;;;;;;;;;;;11.49;100.00;-25389.63;4997524;28;19971;-85
2022/09/21 00:32:46;;;;;;;;;;;;;;;11.47;100.00;-25388.88;4977013;28;19917;-84
2022/09/21 00:35:11;;;;;;;;;;;;;;;11.43;100.00;-25387.84;4995789;28;19972;-85
2022/09/21 00:37:36;;;;;;;;;;;;;;;11.36;100.00;-25385.81;4995877;28;19956;-83
2022/09/21 00:40:02;;;;;;;;;;;;;;;11.31;100.00;-25384.34;4996584;28;19925;-82
2022/09/21 00:42:30;;;;;;;;;;;;;;;11.27;100.00;-25383.16;4996698;28;19944;-85
2022/09/21 00:44:56;;;;;;;;;;;;;;;11.29;100.00;-25383.75;4980197;28;19968;-85
2022/09/21 00:47:30;;;;;;;;;;;;;;;11.27;100.00;-25383.16;4996476;28;19999;-83
2022/09/21 00:49:56;;;;;;;;;;;;;;;11.29;100.00;-25383.75;5013913;28;19924;-86
2022/09/21 00:52:24;;;;;;;;;;;;;;;11.29;100.00;-25383.75;4996564;28;19921;-85
2022/09/21 00:54:55;;;;;;;;;;;;;;;11.28;100.00;-25383.47;4996311;28;19968;-85
2022/09/21 00:57:22;;;;;;;;;;;;;;;11.22;100.00;-25381.84;4996102;28;19918;-84
2022/09/21 00:59:49;;;;;;;;;;;;;;;11.19;100.00;-25380.81;4996366;28;19921;-85
2022/09/21 01:02:15;;;;;;;;;;;;;;;11.13;100.00;-25379.22;4996152;28;19925;-83
2022/09/21 01:04:40;;;;;;;;;;;;;;;11.10;100.00;-25378.34;4995577;28;19922;-84
2022/09/21 01:07:11;;;;;;;;;;;;;;;11.08;100.00;-25377.75;5013830;28;19972;-84
2022/09/21 01:09:36;;;;;;;;;;;;;;;11.04;100.00;-25376.72;5005078;28;19957;-84
2022/09/21 01:12:27;;;;;;;;;;;;;;;10.96;100.00;-25374.53;5002926;28;19960;-83
2022/09/21 01:14:52;;;;;;;;;;;;;;;10.84;100.00;-25371.00;5015965;28;19923;-84
2022/09/21 01:17:24;;;;;;;;;;;;;;;10.71;100.00;-25367.34;5016094;28;19917;-82
2022/09/21 01:20:08;;;;;;;;;;;;;;;10.62;100.00;-25364.69;5016099;28;19917;-85
2022/09/21 01:22:58;;;;;;;;;;;;;;;10.59;100.00;-25363.97;5015682;28;19917;-84
2022/09/21 01:25:32;;;;;;;;;;;;;;;10.59;100.00;-25363.81;5015033;28;19943;-86
2022/09/21 01:28:04;;;;;;;;;;;;;;;10.55;100.00;-25362.78;5015635;28;19921;-84
2022/09/21 01:30:32;;;;;;;;;;;;;;;10.49;100.00;-25361.03;5005912;28;19928;-84
2022/09/21 01:33:12;;;;;;;;;;;;;;;10.43;100.00;-25359.28;5011686;28;19997;-82
2022/09/21 01:35:47;;;;;;;;;;;;;;;10.36;100.00;-25357.38;5002211;28;19918;-82
2022/09/21 01:38:15;;;;;;;;;;;;;;;10.34;100.00;-25356.78;5012188;28;19974;-83
2022/09/21 01:40:42;;;;;;;;;;;;;;;10.29;100.00;-25355.16;4992697;28;20401;-85
2022/09/21 01:43:13;;;;;;;;;;;;;;;10.21;100.00;-25352.97;5012190;28;20016;-81
2022/09/21 01:45:39;;;;;;;;;;;;;;;10.17;100.00;-25351.94;5016450;28;19917;-81
2022/09/21 01:48:06;;;;;;;;;;;;;;;10.11;100.00;-25350.03;5015446;28;19921;-82
2022/09/21 01:50:35;;;;;;;;;;;;;;;10.06;100.00;-25348.84;5019228;28;20321;-85
2022/09/21 01:53:17;;;;;;;;;;;;;;;10.05;100.00;-25348.56;5018978;28;20369;-85
2022/09/21 01:55:45;;;;;;;;;;;;;;;10.03;100.00;-25347.81;5019662;28;19925;-84
2022/09/21 01:58:16;;;;;;;;;;;;;;;9.99;100.00;-25346.78;5018967;28;20012;-85
2022/09/21 02:00:45;;;;;;;;;;;;;;;9.95;100.00;-25345.63;5019062;28;20027;-81
2022/09/21 02:03:22;;;;;;;;;;;;;;;9.89;100.00;-25343.84;5018637;28;19917;-81
2022/09/21 02:05:48;;;;;;;;;;;;;;;9.86;100.00;-25343.13;5018434;28;19921;-81
2022/09/21 02:08:13;;;;;;;;;;;;;;;9.84;100.00;-25342.38;5018795;28;19917;-83
2022/09/21 02:10:42;;;;;;;;;;;;;;;9.81;100.00;-25341.50;5018980;28;20004;-81
2022/09/21 02:13:10;;;;;;;;;;;;;;;9.76;100.00;-25340.19;5018936;28;19921;-82
2022/09/21 02:15:48;;;;;;;;;;;;;;;9.73;100.00;-25339.31;5009883;28;19917;-81
2022/09/21 02:18:32;;;;;;;;;;;;;;;9.73;100.00;-25339.16;5018976;28;19921;-82
2022/09/21 02:20:59;;;;;;;;;;;;;;;9.63;100.00;-25336.34;5018493;28;19921;-82
2022/09/21 02:23:42;;;;;;;;;;;;;;;9.60;100.00;-25335.47;5010763;28;20103;-80
2022/09/21 02:26:27;;;;;;;;;;;;;;;9.54;100.00;-25333.88;5022013;28;20008;-83
2022/09/21 02:29:13;;;;;;;;;;;;;;;9.54;100.00;-25333.88;5006712;28;20496;-83
2022/09/21 02:31:38;;;;;;;;;;;;;;;9.54;100.00;-25333.88;5022879;28;20426;-79
2022/09/21 02:34:32;;;;;;;;;;;;;;;9.49;100.00;-25332.53;5023163;28;19924;-85
2022/09/21 02:37:02;;;;;;;;;;;;;;;9.48;100.00;-25332.25;5021084;28;19924;-84
2022/09/21 02:39:37;;;;;;;;;;;;;;;9.47;100.00;-25331.81;5027127;28;19917;-81
2022/09/21 02:42:02;;;;;;;;;;;;;;;9.42;100.00;-25330.34;5028410;28;20361;-83
2022/09/21 02:44:32;;;;;;;;;;;;;;;9.40;100.00;-25329.75;5025519;28;19917;-85
2022/09/21 02:46:58;;;;;;;;;;;;;;;9.40;100.00;-25329.75;5025786;28;19942;-83
2022/09/21 02:49:26;;;;;;;;;;;;;;;9.36;100.00;-25328.72;5021912;28;20054;-81
2022/09/21 02:51:55;;;;;;;;;;;;;;;9.36;100.00;-25328.72;5024856;28;20020;-80
2022/09/21 02:54:25;;;;;;;;;;;;;;;9.32;100.00;-25327.69;5017665;28;19918;-80
2022/09/21 02:56:52;;;;;;;;;;;;;;;9.27;100.00;-25326.06;5018281;28;19921;-83
2022/09/21 02:59:20;;;;;;;;;;;;;;;9.34;100.00;-25328.28;5001846;28;19917;-84
2022/09/21 03:01:45;;;;;;;;;;;;;;;9.30;100.00;-25326.94;5001867;28;20432;-83
2022/09/21 03:04:15;;;;;;;;;;;;;;;9.24;100.00;-25325.34;4999120;28;19922;-84
2022/09/21 03:06:40;;;;;;;;;;;;;;;9.25;100.00;-25325.50;4998944;28;20004;-81
2022/09/21 03:09:06;;;;;;;;;;;;;;;9.23;100.00;-25324.91;4999865;28;19959;-80
2022/09/21 03:11:32;;;;;;;;;;;;;;;9.23;100.00;-25325.03;5000796;28;19957;-79
2022/09/21 03:14:07;;;;;;;;;;;;;;;9.15;100.00;-25322.84;4998999;28;19921;-80
2022/09/21 03:16:32;;;;;;;;;;;;;;;9.14;100.00;-25322.41;5017986;28;19917;-83
2022/09/21 03:18:58;;;;;;;;;;;;;;;9.16;100.00;-25322.97;5000039;28;19917;-83
2022/09/21 03:21:23;;;;;;;;;;;;;;;9.09;100.00;-25320.94;4985741;28;20520;-80
2022/09/21 03:23:48;;;;;;;;;;;;;;;9.07;100.00;-25320.47;5015463;28;19928;-79
2022/09/21 03:26:14;;;;;;;;;;;;;;;8.98;100.00;-25317.84;5023545;28;20428;-80
2022/09/21 03:28:39;;;;;;;;;;;;;;;9.05;100.00;-25319.75;5016888;28;20037;-81
2022/09/21 03:31:05;;;;;;;;;;;;;;;9.03;100.00;-25319.31;5019361;28;20378;-80
2022/09/21 03:33:39;;;;;;;;;;;;;;;8.99;100.00;-25318.13;5031229;28;19926;-80
2022/09/21 03:36:05;;;;;;;;;;;;;;;8.98;100.00;-25317.84;5025720;28;19917;-82
2022/09/21 03:38:30;;;;;;;;;;;;;;;8.94;100.00;-25316.81;5023119;28;19948;-78
2022/09/21 03:40:56;;;;;;;;;;;;;;;8.93;100.00;-25316.53;5014152;28;19955;-81
2022/09/21 03:43:25;;;;;;;;;;;;;;;8.88;100.00;-25315.03;5003624;28;19929;-79
2022/09/21 03:45:50;;;;;;;;;;;;;;;8.85;100.00;-25314.00;5008049;28;19921;-80
2022/09/21 03:48:15;;;;;;;;;;;;;;;8.76;100.00;-25311.66;5023622;28;19928;-80
2022/09/21 03:50:40;;;;;;;;;;;;;;;8.81;100.00;-25313.00;5043117;28;19929;-82
2022/09/21 03:53:09;;;;;;;;;;;;;;;8.80;100.00;-25312.69;5024274;28;20342;-79
2022/09/21 03:55:34;;;;;;;;;;;;;;;8.78;100.00;-25312.09;5021796;28;19924;-85
2022/09/21 03:57:59;;;;;;;;;;;;;;;8.74;100.00;-25310.94;5039917;28;19917;-81
2022/09/21 04:00:25;;;;;;;;;;;;;;;8.73;100.00;-25310.63;5015245;28;19929;-79
2022/09/21 04:02:53;;;;;;;;;;;;;;;8.63;100.00;-25307.97;5018323;28;19990;-81
2022/09/21 04:05:18;;;;;;;;;;;;;;;8.59;100.00;-25306.81;5017884;28;19928;-80
2022/09/21 04:07:47;;;;;;;;;;;;;;;8.59;100.00;-25306.81;5021129;28;20218;-83
2022/09/21 04:10:16;;;;;;;;;;;;;;;8.59;100.00;-25306.66;5018597;28;19989;-81
2022/09/21 04:12:43;;;;;;;;;;;;;;;8.58;100.00;-25306.50;5021161;28;19954;-81
2022/09/21 04:15:12;;;;;;;;;;;;;;;8.55;100.00;-25305.63;5021492;28;19913;-79
2022/09/21 04:17:37;;;;;;;;;;;;;;;8.56;100.00;-25305.91;5021372;28;19917;-79
2022/09/21 04:20:05;;;;;;;;;;;;;;;8.55;100.00;-25305.63;5020886;28;19923;-80
2022/09/21 04:22:30;;;;;;;;;;;;;;;8.59;100.00;-25306.81;5019489;28;20344;-80
2022/09/21 04:24:55;;;;;;;;;;;;;;;8.56;100.00;-25305.78;5020319;28;19924;-80
2022/09/21 04:27:22;;;;;;;;;;;;;;;8.57;100.00;-25306.22;5034957;28;19928;-79
2022/09/21 04:29:48;;;;;;;;;;;;;;;8.61;100.00;-25307.25;5017652;28;19917;-84
2022/09/21 04:32:14;;;;;;;;;;;;;;;8.54;100.00;-25305.19;5017801;28;19921;-79
2022/09/21 04:34:39;;;;;;;;;;;;;;;8.55;100.00;-25305.63;5016979;28;19943;-78
2022/09/21 04:37:07;;;;;;;;;;;;;;;8.51;100.00;-25304.31;5015343;28;21556;-79
2022/09/21 04:39:33;;;;;;;;;;;;;;;8.51;100.00;-25304.44;5016675;28;19941;-79
2022/09/21 04:42:43;;;;;;;;;;;;;;;8.55;100.00;-25305.63;5031849;28;19956;-83
2022/09/21 04:45:31;;;;;;;;;;;;;;;8.66;100.00;-25308.56;5031129;28;19925;-83
2022/09/21 04:47:58;;;;;;;;;;;;;;;8.70;100.00;-25309.91;4999401;28;20010;-81
2022/09/21 04:50:24;;;;;;;;;;;;;;;8.73;100.00;-25310.78;5013705;28;19916;-81
2022/09/21 04:53:11;;;;;;;;;;;;;;;8.75;100.00;-25311.38;5018329;28;19917;-83
2022/09/21 04:55:37;;;;;;;;;;;;;;;8.81;100.00;-25313.00;5016459;28;19917;-83
2022/09/21 04:58:04;;;;;;;;;;;;;;;8.79;100.00;-25312.53;5012286;28;19922;-83
2022/09/21 05:00:57;;;;;;;;;;;;;;;8.72;100.00;-25310.47;4980150;28;20397;-81
2022/09/21 05:04:06;;;;;;;;;;;;;;;8.69;100.00;-25309.59;5009212;28;19922;-83
2022/09/21 05:07:01;;;;;;;;;;;;;;;8.68;100.00;-25309.31;5014250;28;19926;-81
2022/09/21 05:12:59;;;;;;;;;;;;;;;8.62;100.00;-25307.69;4994357;28;19929;-81
2022/09/21 05:19:33;;;;;;;;;;;;;;;8.70;100.00;-25309.75;5016770;28;19948;-81
2022/09/21 05:25:42;;;;;;;;;;;;;;;8.72;100.00;-25310.34;4937544;29;20054;-81
2022/09/21 05:31:58;;;;;;;;;;;;;;;8.71;100.00;-25310.03;4918565;29;19930;-82
2022/09/21 05:35:07;;;;;;;;;;;;;;;8.78;100.00;-25312.25;4918169;29;20365;-84
2022/09/21 05:37:47;;;;;;;;;;;;;;;8.83;100.00;-25313.56;4912828;29;19923;-82
2022/09/21 05:40:12;;;;;;;;;;;;;;;8.95;100.00;-25316.97;4902646;29;19923;-86
2022/09/21 05:42:38;;;;;;;;;;;;;;;9.01;100.00;-25318.56;4910073;29;20691;-80
2022/09/21 05:45:04;;;;;;;;;;;;;;;9.01;100.00;-25318.56;4921427;29;20673;-84
2022/09/21 05:47:35;;;;;;;;;;;;;;;9.13;100.00;-25322.09;4920828;29;19919;-77
2022/09/21 05:50:19;;;;;;;;;;;;;;;9.14;100.00;-25322.53;4936401;29;19918;-81
2022/09/21 05:52:59;;;;;;;;;;;;;;;9.12;100.00;-25321.81;4935851;28;19924;-79
2022/09/21 05:55:43;;;;;;;;;;;;;;;9.25;100.00;-25325.63;4968923;28;19928;-78
2022/09/21 05:58:33;;;;;;;;;;;;;;;9.34;100.00;-25328.28;4975237;28;20398;-79
2022/09/21 06:01:27;;;;;;;;;;;;;;;9.43;100.00;-25330.63;5013334;28;19917;-82
2022/09/21 06:03:55;;;;;;;;;;;;;;;9.52;100.00;-25333.44;4978625;28;19922;-85
2022/09/21 06:06:21;;;;;;;;;;;;;;;9.60;100.00;-25335.63;4965553;28;19932;-86
2022/09/21 06:08:46;;;;;;;;;;;;;;;9.60;100.00;-25335.47;5015031;28;19917;-86
2022/09/21 06:11:14;;;;;;;;;;;;;;;9.59;100.00;-25335.34;5014611;28;20019;-81
2022/09/21 06:13:41;;;;;;;;;;;;;;;9.64;100.00;-25336.81;4995068;28;20000;-80
2022/09/21 06:16:06;;;;;;;;;;;;;;;9.73;100.00;-25339.16;4999338;28;19924;-84
2022/09/21 06:18:45;;;;;;;;;;;;;;;9.82;100.00;-25341.94;5001971;28;19925;-85
2022/09/21 06:21:15;;;;;;;;;;;;;;;9.83;100.00;-25342.22;5015069;28;19936;-81
2022/09/21 06:23:45;;;;;;;;;;;;;;;9.81;100.00;-25341.66;4998530;28;20004;-86
2022/09/21 06:26:11;;;;;;;;;;;;;;;9.84;100.00;-25342.53;5015055;28;19921;-83
2022/09/21 06:28:36;;;;;;;;;;;;;;;9.94;100.00;-25345.16;4997333;28;20394;-85
2022/09/21 06:31:05;;;;;;;;;;;;;;;9.99;100.00;-25346.78;5020783;28;19928;-81
2022/09/21 06:33:31;;;;;;;;;;;;;;;10.07;100.00;-25349.00;5048926;28;19921;-79
2022/09/21 06:35:57;;;;;;;;;;;;;;;10.09;100.00;-25349.44;5022057;28;19917;-84
2022/09/21 06:38:23;;;;;;;;;;;;;;;10.13;100.00;-25350.75;5016960;28;19917;-86
2022/09/21 06:40:53;;;;;;;;;;;;;;;10.25;100.00;-25354.13;5016666;28;19920;-78
2022/09/21 06:43:23;;;;;;;;;;;;;;;10.35;100.00;-25357.06;5020978;28;19921;-80
2022/09/21 06:45:54;;;;;;;;;;;;;;;10.34;100.00;-25356.78;5024394;28;19972;-81
2022/09/21 06:48:20;;;;;;;;;;;;;;;10.58;100.00;-25363.66;5017397;28;20031;-86
2022/09/21 06:50:46;;;;;;;;;;;;;;;10.85;100.00;-25371.16;5016786;28;20033;-79
2022/09/21 06:53:11;;;;;;;;;;;;;;;11.21;100.00;-25381.56;4997826;28;19936;-80
2022/09/21 06:55:37;;;;;;;;;;;;;;;11.40;100.00;-25386.97;4998261;28;19925;-78
2022/09/21 06:58:02;;;;;;;;;;;;;;;11.47;100.00;-25389.03;4997419;28;19921;-82
2022/09/21 07:00:28;;;;;;;;;;;;;;;11.47;100.00;-25389.03;4996618;28;19922;-84
2022/09/21 07:02:53;;;;;;;;;;;;;;;11.41;100.00;-25387.28;4995614;28;19917;-82
2022/09/21 07:05:18;;;;;;;;;;;;;;;11.56;100.00;-25391.53;4996612;28;20382;-80
2022/09/21 07:07:44;;;;;;;;;;;;;;;11.71;100.00;-25395.63;4981136;28;19925;-82
2022/09/21 07:10:10;;;;;;;;;;;;;;;11.68;100.00;-25394.88;5011235;28;19996;-83
2022/09/21 07:12:36;;;;;;;;;;;;;;;11.75;100.00;-25396.94;5000855;28;19921;-85
2022/09/21 07:15:03;;;;;;;;;;;;;;;11.82;100.00;-25398.84;5022624;28;19975;-84
2022/09/21 07:17:32;;;;;;;;;;;;;;;11.75;100.00;-25396.78;5000697;28;20029;-84
2022/09/21 07:19:57;;;;;;;;;;;;;;;11.59;100.00;-25392.41;5018516;28;19924;-84
2022/09/21 07:22:29;;;;;;;;;;;;;;;11.59;100.00;-25392.41;5016198;28;19917;-83
2022/09/21 07:24:55;;;;;;;;;;;;;;;11.47;100.00;-25389.03;5034653;28;19964;-85
2022/09/21 07:27:20;;;;;;;;;;;;;;;11.40;100.00;-25386.97;5017560;28;19960;-81
2022/09/21 07:29:45;;;;;;;;;;;;;;;11.42;100.00;-25387.56;5001016;28;19936;-83
2022/09/21 07:32:18;;;;;;;;;;;;;;;11.46;100.00;-25388.72;5035801;28;19920;-84
2022/09/21 07:35:03;;;;;;;;;;;;;;;11.60;100.00;-25392.69;5042110;28;19917;-82
2022/09/21 07:37:30;;;;;;;;;;;;;;;11.62;100.00;-25393.13;5053314;28;19916;-84
2022/09/21 07:40:04;;;;;;;;;;;;;;;11.66;100.00;-25394.31;5051727;28;19952;-83
2022/09/21 07:42:30;;;;;;;;;;;;;;;11.81;100.00;-25398.69;5022255;28;19940;-81
2022/09/21 07:44:55;;;;;;;;;;;;;;;12.10;100.00;-25406.75;5034526;28;19978;-81
2022/09/21 07:47:20;;;;;;;;;;;;;;;12.22;100.00;-23117.06;5018258;28;20102;-79
2022/09/21 07:49:45;;;;;;;;;;;;;;;12.70;100.00;-21490.31;5017826;28;20357;-79
2022/09/21 07:52:14;;;;;;;;;;;;;;;13.59;100.00;-18882.97;5016657;28;20339;-78
2022/09/21 07:54:39;;;;;;;;;;;;;;;14.55;100.00;-12644.06;5018021;28;19948;-80
2022/09/21 07:59:50;;;;;;;;;;;;;;;15.31;100.00;26479.94;5017580;28;20588;-82
2022/09/21 08:02:16;;;;;;;;;;;;;;;16.35;100.00;51990.44;5032922;28;19924;-83
2022/09/21 08:04:43;;;;;;;;;;;;;;;16.73;100.00;106868.09;5031206;28;19921;-80
2022/09/21 08:07:28;;;;;;;;;;;;;;;16.31;100.00;146836.03;4998291;28;19921;-79
2022/09/21 08:10:03;;;;;;;;;;;;;;;16.73;100.00;146939.47;5018557;28;19975;-78
2022/09/21 08:13:03;;;;;;;;;;;;;;;17.20;100.00;147057.13;4986528;28;19922;-80
2022/09/21 08:16:01;;;;;;;;;;;;;;;17.29;100.00;147077.56;5015207;28;20286;-81
2022/09/21 08:18:58;;;;;;;;;;;;;;;16.89;100.00;146979.19;5014206;28;20362;-82
2022/09/21 08:21:50;;;;;;;;;;;;;;;17.16;100.00;147046.88;5001373;28;19993;-78
2022/09/21 08:24:21;;;;;;;;;;;;;;;17.24;100.00;147066.06;5017867;28;19928;-81
2022/09/21 08:26:55;;;;;;;;;;;;;;;17.14;100.00;147041.78;5020422;28;19921;-80
2022/09/21 08:29:24;;;;;;;;;;;;;;;17.68;100.00;147174.72;4999948;28;19925;-79
2022/09/21 08:31:58;;;;;;;;;;;;;;;17.83;100.00;147213.09;5004647;28;20022;-79
2022/09/21 08:34:29;;;;;;;;;;;;;;;16.90;100.00;146980.44;4989065;28;20223;-81
2022/09/21 08:37:01;;;;;;;;;;;;;;;17.37;100.00;147098.00;5018712;28;19923;-80
2022/09/21 08:39:29;;;;;;;;;;;;;;;17.13;100.00;147037.97;4999808;28;20581;-81
2022/09/21 08:42:04;;;;;;;;;;;;;;;16.56;100.00;146897.31;4997422;28;19932;-82
2022/09/21 08:44:41;;;;;;;;;;;;;;;16.42;100.00;146861.56;4998423;28;19941;-82
2022/09/21 08:47:28;;;;;;;;;;;;;;;15.86;100.00;146722.34;4973429;28;19925;-81
2022/09/21 08:50:06;;;;;;;;;;;;;;;15.73;100.00;146691.66;4972126;28;20421;-80
2022/09/21 08:53:01;;;;;;;;;;;;;;;15.56;100.00;146648.25;4971876;28;19926;-80
2022/09/21 08:56:02;;;;;;;;;;;;;;;15.68;100.00;146678.91;4951834;28;19922;-81
2022/09/21 08:58:47;;;;;;;;;;;;;;;16.00;100.00;146758.09;4968956;28;19914;-79
2022/09/21 09:01:48;;;;;;;;;;;;;;;15.94;100.00;146744.06;4972301;28;19984;-81
2022/09/21 09:04:21;;;;;;;;;;;;;;;15.90;100.00;146732.56;4913069;29;19959;-81
2022/09/21 09:10:08;;;;;;;;;;;;;;;15.17;100.00;146551.25;4986393;28;20319;-81
2022/09/21 09:13:04;;;;;;;;;;;;;;;15.36;100.00;146598.47;4969339;28;19925;-80
2022/09/21 09:15:32;;;;;;;;;;;;;;;15.46;100.00;146624.00;4963726;28;20042;-79
2022/09/21 09:17:58;;;;;;;;;;;;;;;15.64;100.00;146667.41;5001197;28;19925;-80
2022/09/21 09:21:06;;;;;;;;;;;;;;;15.35;100.00;146595.88;5032207;28;19986;-80
2022/09/21 09:23:53;;;;;;;;;;;;;;;15.49;100.00;146630.34;4994923;28;19917;-81
2022/09/21 09:26:24;;;;;;;;;;;;;;;15.48;100.00;146627.84;4997850;28;19928;-82
2022/09/21 09:28:52;;;;;;;;;;;;;;;15.26;100.00;146575.47;5014055;28;19917;-82
2022/09/21 09:31:24;;;;;;;;;;;;;;;15.28;100.00;146579.31;5030543;28;19921;-82
2022/09/21 09:33:57;;;;;;;;;;;;;;;15.41;100.00;146611.22;5015055;28;20035;-81
2022/09/21 09:36:26;;;;;;;;;;;;;;;15.67;100.00;146676.31;5015591;28;19978;-81
2022/09/21 09:38:56;;;;;;;;;;;;;;;16.13;100.00;146790.06;5015054;28;19928;-81
2022/09/21 09:41:58;;;;;;;;;;;;;;;16.33;100.00;146839.88;5033018;28;19917;-80
2022/09/21 09:44:53;;;;;;;;;;;;;;;16.42;100.00;146861.56;5033056;28;20269;-81
2022/09/21 09:47:32;;;;;;;;;;;;;;;16.54;100.00;146890.97;5006511;28;19987;-80
2022/09/21 09:50:30;;;;;;;;;;;;;;;16.22;100.00;146813.03;5013070;28;19917;-80
2022/09/21 09:53:11;;;;;;;;;;;;;;;16.05;100.00;146770.91;4966806;28;19949;-80
2022/09/21 09:55:45;;;;;;;;;;;;;;;15.90;100.00;146732.56;4991640;28;20400;-80
2022/09/21 09:58:31;;;;;;;;;;;;;;;15.95;100.00;146746.59;5011635;28;19921;-81
2022/09/21 10:01:10;;;;;;;;;;;;;;;16.03;100.00;146765.75;4993224;28;20013;-84
2022/09/21 10:03:56;;;;;;;;;;;;;;;15.83;100.00;146715.94;4994945;28;19917;-83
2022/09/21 10:06:42;;;;;;;;;;;;;;;16.29;100.00;146829.63;5015998;28;19944;-80
2022/09/21 10:09:19;;;;;;;;;;;;;;;16.40;100.00;146857.72;4998705;28;19918;-82
2022/09/21 10:11:45;;;;;;;;;;;;;;;16.12;100.00;146788.75;4998696;28;19921;-82
2022/09/21 10:14:15;;;;;;;;;;;;;;;16.31;100.00;146836.03;5014687;28;19960;-82
2022/09/21 10:16:41;;;;;;;;;;;;;;;16.28;100.00;146828.38;5015039;28;19964;-81
2022/09/21 10:19:13;;;;;;;;;;;;;;;15.99;100.00;146755.56;5016219;28;20386;-80
2022/09/21 10:21:42;;;;;;;;;;;;;;;15.98;100.00;146753.00;5004806;28;20293;-81
2022/09/21 10:24:17;;;;;;;;;;;;;;;15.96;100.00;146749.16;4997551;28;19922;-80
2022/09/21 10:26:47;;;;;;;;;;;;;;;16.31;100.00;146834.72;4998138;28;19925;-80
2022/09/21 10:29:25;;;;;;;;;;;;;;;16.38;100.00;146852.63;4998189;28;19913;-81
2022/09/21 10:31:55;;;;;;;;;;;;;;;16.66;100.00;146921.63;4998957;28;19947;-82
2022/09/21 10:34:23;;;;;;;;;;;;;;;17.00;100.00;147006.03;4998583;28;19920;-82
2022/09/21 10:36:53;;;;;;;;;;;;;;;16.59;100.00;146904.97;4996633;28;19918;-80
2022/09/21 10:39:38;;;;;;;;;;;;;;;16.39;100.00;146853.91;4998173;28;20012;-80
2022/09/21 10:42:15;;;;;;;;;;;;;;;16.01;100.00;146759.41;4996102;28;19925;-81
2022/09/21 10:44:44;;;;;;;;;;;;;;;16.01;100.00;146760.66;4997296;28;19921;-80
2022/09/21 10:47:30;;;;;;;;;;;;;;;15.84;100.00;146717.25;5014555;28;19917;-80
2022/09/21 10:49:57;;;;;;;;;;;;;;;15.58;100.00;146653.34;5000286;28;19932;-81
2022/09/21 10:52:30;;;;;;;;;;;;;;;15.82;100.00;146713.41;4996971;28;19921;-80
2022/09/21 10:54:56;;;;;;;;;;;;;;;16.17;100.00;146800.25;4997957;28;19928;-80
2022/09/21 10:57:23;;;;;;;;;;;;;;;16.27;100.00;146824.53;4997984;28;19944;-81
2022/09/21 10:59:48;;;;;;;;;;;;;;;16.55;100.00;146893.53;5015396;28;19921;-81
2022/09/21 11:02:42;;;;;;;;;;;;;;;16.15;100.00;146795.16;4996679;28;19930;-82
2022/09/21 11:05:34;;;;;;;;;;;;;;;16.38;100.00;146852.63;5014017;28;19941;-81
2022/09/21 11:08:04;;;;;;;;;;;;;;;16.71;100.00;146933.13;5008968;28;20289;-83
2022/09/21 11:10:48;;;;;;;;;;;;;;;16.35;100.00;146844.97;5018371;28;19921;-83
2022/09/21 11:13:32;;;;;;;;;;;;;;;16.74;100.00;146940.78;5018236;28;19913;-82
2022/09/21 11:16:16;;;;;;;;;;;;;;;16.67;100.00;146925.47;5010271;28;19948;-82
2022/09/21 11:18:53;;;;;;;;;;;;;;;16.90;100.00;146981.69;4998047;28;19921;-82
2022/09/21 11:21:19;;;;;;;;;;;;;;;16.86;100.00;146972.78;4998116;28;20757;-82
2022/09/21 11:23:52;;;;;;;;;;;;;;;16.63;100.00;146915.22;5009153;28;19962;-83
2022/09/21 11:26:20;;;;;;;;;;;;;;;17.00;100.00;147007.28;5010871;28;19921;-82
2022/09/21 11:29:05;;;;;;;;;;;;;;;16.60;100.00;146907.56;4999128;28;20039;-82
2022/09/21 11:31:34;;;;;;;;;;;;;;;16.91;100.00;146984.28;5009325;28;19917;-83
2022/09/21 11:34:26;;;;;;;;;;;;;;;16.72;100.00;146935.66;5015792;28;19917;-81
2022/09/21 11:36:51;;;;;;;;;;;;;;;16.49;100.00;146880.72;4997980;28;19917;-79
2022/09/21 11:39:25;;;;;;;;;;;;;;;16.28;100.00;146828.38;5016156;28;20289;-80
2022/09/21 11:42:03;;;;;;;;;;;;;;;16.26;100.00;146821.97;5016364;28;20330;-82
2022/09/21 11:44:44;;;;;;;;;;;;;;;16.62;100.00;146911.38;5014825;28;19963;-82
2022/09/21 11:47:17;;;;;;;;;;;;;;;16.88;100.00;146976.59;5016128;28;19964;-83
2022/09/21 11:50:03;;;;;;;;;;;;;;;17.09;100.00;147027.72;5016117;28;20395;-80
2022/09/21 11:52:30;;;;;;;;;;;;;;;17.01;100.00;147009.84;5032195;28;19964;-80
2022/09/21 11:55:14;;;;;;;;;;;;;;;17.22;100.00;147060.97;5016724;28;19913;-78
2022/09/21 11:57:40;;;;;;;;;;;;;;;17.14;100.00;147041.78;5015198;28;20457;-82
2022/09/21 12:00:28;;;;;;;;;;;;;;;17.05;100.00;147020.06;5031871;28;19924;-80
2022/09/21 12:03:28;;;;;;;;;;;;;;;17.09;100.00;147029.03;5029248;28;19917;-82
2022/09/21 12:06:20;;;;;;;;;;;;;;;16.68;100.00;146927.97;5025190;28;20200;-78
2022/09/21 12:09:35;;;;;;;;;;;;;;;16.61;100.00;146910.13;5005517;28;19928;-77
2022/09/21 12:12:07;;;;;;;;;;;;;;;17.06;100.00;147021.34;4997154;28;20210;-82
2022/09/21 12:14:56;;;;;;;;;;;;;;;17.16;100.00;147046.88;4997837;28;19984;-79
2022/09/21 12:17:31;;;;;;;;;;;;;;;17.10;100.00;147031.56;4998039;28;20031;-80
2022/09/21 12:20:44;;;;;;;;;;;;;;;17.35;100.00;147092.91;4994668;28;19926;-80
2022/09/21 12:26:54;;;;;;;;;;;;;;;18.23;100.00;147312.91;4932028;29;19930;-79
2022/09/21 12:30:03;;;;;;;;;;;;;;;18.07;100.00;147273.25;4933500;29;19958;-80
2022/09/21 12:36:27;;;;;;;;;;;;;;;17.36;100.00;147095.47;4912756;29;19922;-78
2022/09/21 12:54:46;;;;;;;;;;;;;;;16.72;100.00;146936.97;4873725;29;20013;-78
2022/09/21 12:57:57;;;;;;;;;;;;;;;16.84;100.00;146967.63;4897239;29;20466;-81
2022/09/21 13:00:41;;;;;;;;;;;;;;;17.07;100.00;147022.63;4816809;29;19936;-80
2022/09/21 13:07:10;;;;;;;;;;;;;;;17.08;100.00;147025.19;4810581;29;20011;-81
2022/09/21 13:10:27;;;;;;;;;;;;;;;17.48;100.00;147126.16;4830035;29;19961;-81
2022/09/21 13:13:09;;;;;;;;;;;;;;;17.40;100.00;147105.69;4781169;29;20444;-84
2022/09/21 13:16:00;;;;;;;;;;;;;;;17.08;100.00;147026.44;4821664;29;20383;-81
2022/09/21 13:18:43;;;;;;;;;;;;;;;17.08;100.00;147026.44;4815110;29;20282;-83
2022/09/21 13:21:44;;;;;;;;;;;;;;;17.10;100.00;147030.28;4809251;29;19988;-81
2022/09/21 13:25:22;;;;;;;;;;;;;;;16.94;100.00;146991.94;4824235;29;19921;-83
2022/09/21 13:34:38;;;;;;;;;;;;;;;16.43;100.00;146864.13;4858664;29;19983;-82
2022/09/21 13:37:17;;;;;;;;;;;;;;;16.25;100.00;146820.72;4873157;29;20319;-81
2022/09/21 13:40:27;;;;;;;;;;;;;;;16.31;100.00;146834.72;4887460;29;20011;-82
2022/09/21 13:43:39;;;;;;;;;;;;;;;16.55;100.00;146894.78;4874011;29;19923;-82
2022/09/21 13:46:48;;;;;;;;;;;;;;;17.18;100.00;147050.72;4879646;29;20054;-82
2022/09/21 13:50:00;;;;;;;;;;;;;;;17.56;100.00;147146.59;4877830;29;19920;-83
2022/09/21 13:56:12;;;;;;;;;;;;;;;17.76;100.00;147196.47;4880835;29;20469;-82
2022/09/21 13:59:02;;;;;;;;;;;;;;;17.86;100.00;147220.75;4903368;29;19919;-83
2022/09/21 14:02:12;;;;;;;;;;;;;;;17.35;100.00;147094.19;4899164;29;20030;-82
2022/09/21 14:05:38;;;;;;;;;;;;;;;17.25;100.00;147067.38;4896405;29;19926;-82
2022/09/21 14:11:48;;;;;;;;;;;;;;;17.54;100.00;147140.19;4903252;29;20070;-82